Time,TemperatureF,DewpointF,PressureIn,WindDirection,WindDirectionDegrees,WindSpeedMPH,WindSpeedGustMPH,Humidity,HourlyPrecipIn,Conditions,Clouds,dailyrainin,SoftwareType,DateUTC
2013-02-28 00:05:00,40.8,40.8,29.53,WSW,249,10.0,12.0,100,0.00,,,0.00,Wunderground v.1.15,2013-02-28 05:05:00,
2013-02-28 00:10:00,40.6,40.6,29.53,West,281,11.0,16.0,100,0.00,,,0.00,Wunderground v.1.15,2013-02-28 05:10:00,
2013-02-28 00:20:00,40.3,40.3,29.54,WSW,247,11.0,11.0,100,0.00,,,0.00,Wunderground v.1.15,2013-02-28 05:20:00,
2013-02-28 00:25:00,40.2,40.2,29.54,WSW,254,10.0,11.0,100,0.00,,,0.00,Wunderground v.1.15,2013-02-28 05:25:00,
2013-02-28 00:30:00,40.2,40.2,29.53,SSW,206,8.0,8.0,100,0.00,,,0.00,Wunderground v.1.15,2013-02-28 05:30:00,
2013-02-28 00:35:00,40.2,40.2,29.53,West,263,8.0,8.0,100,0.00,,,0.00,Wunderground v.1.15,2013-02-28 05:35:00,
2013-02-28 00:40:00,40.2,40.2,29.53,West,264,8.0,11.0,100,0.00,,,0.00,Wunderground v.1.15,2013-02-28 05:40:00,
2013-02-28 00:45:00,40.2,40.2,29.54,West,266,9.0,11.0,100,0.00,,,0.00,Wunderground v.1.15,2013-02-28 05:45:00,
2013-02-28 00:50:00,40.1,40.1,29.54,WSW,251,8.0,10.0,100,0.00,,,0.00,Wunderground v.1.15,2013-02-28 05:50:00,
2013-02-28 01:00:00,40.2,40.2,29.54,West,261,10.0,13.0,100,0.00,,,0.00,Wunderground v.1.15,2013-02-28 06:00:00,
2013-02-28 01:10:00,40.2,40.2,29.54,WSW,250,9.0,9.0,100,0.00,,,0.00,Wunderground v.1.15,2013-02-28 06:10:00,
2013-02-28 01:19:00,40.3,40.3,29.54,WSW,254,7.0,11.0,100,0.00,,,0.00,Wunderground v.1.15,2013-02-28 06:19:00,
2013-02-28 01:25:00,40.2,40.2,29.54,West,273,8.0,11.0,100,0.00,,,0.00,Wunderground v.1.15,2013-02-28 06:25:00,
2013-02-28 01:35:00,40.2,40.2,29.54,West,273,7.0,13.0,100,0.00,,,0.00,Wunderground v.1.15,2013-02-28 06:35:00,
2013-02-28 01:44:00,40.2,40.2,29.54,SW,225,7.0,7.0,100,0.00,,,0.00,Wunderground v.1.15,2013-02-28 06:44:00,
2013-02-28 01:50:00,40.1,40.1,29.54,SSW,212,7.0,7.0,100,0.00,,,0.00,Wunderground v.1.15,2013-02-28 06:50:00,
2013-02-28 02:00:00,39.9,39.9,29.54,SW,225,5.0,5.0,100,0.00,,,0.00,Wunderground v.1.15,2013-02-28 07:00:00,
2013-02-28 02:04:00,39.9,39.9,29.54,WSW,256,5.0,5.0,100,0.00,,,0.00,Wunderground v.1.15,2013-02-28 07:04:00,
2013-02-28 02:10:00,39.9,39.9,29.54,SW,232,5.0,5.0,100,0.00,,,0.00,Wunderground v.1.15,2013-02-28 07:10:00,
2013-02-28 02:20:00,39.8,39.8,29.54,West,264,6.0,6.0,100,0.00,,,0.00,Wunderground v.1.15,2013-02-28 07:20:00,
2013-02-28 02:30:00,39.6,39.6,29.54,WSW,251,4.0,5.0,100,0.00,,,0.00,Wunderground v.1.15,2013-02-28 07:30:00,
2013-02-28 02:35:00,39.6,39.6,29.54,West,261,4.0,6.0,100,0.00,,,0.00,Wunderground v.1.15,2013-02-28 07:35:00,
2013-02-28 02:45:00,39.6,39.6,29.54,WSW,253,5.0,5.0,100,0.00,,,0.00,Wunderground v.1.15,2013-02-28 07:45:00,
2013-02-28 02:49:00,39.6,39.6,29.54,West,271,4.0,7.0,100,0.00,,,0.00,Wunderground v.1.15,2013-02-28 07:49:00,
2013-02-28 02:55:00,39.5,39.5,29.54,WSW,250,5.0,7.0,100,0.00,,,0.00,Wunderground v.1.15,2013-02-28 07:55:00,
2013-02-28 03:05:00,39.5,39.5,29.54,West,271,3.0,5.0,100,0.00,,,0.00,Wunderground v.1.15,2013-02-28 08:05:00,
2013-02-28 03:15:00,39.5,39.5,29.53,West,264,5.0,5.0,100,0.00,,,0.00,Wunderground v.1.15,2013-02-28 08:15:00,
2013-02-28 03:25:00,39.3,39.3,29.53,West,273,3.0,4.0,100,0.00,,,0.00,Wunderground v.1.15,2013-02-28 08:25:00,
2013-02-28 03:35:00,39.2,39.2,29.54,WSW,250,5.0,5.0,100,0.00,,,0.00,Wunderground v.1.15,2013-02-28 08:35:00,
2013-02-28 03:40:00,39.1,39.1,29.54,West,271,5.0,5.0,100,0.00,,,0.00,Wunderground v.1.15,2013-02-28 08:40:00,
2013-02-28 03:50:00,39.1,39.1,29.55,WSW,257,5.0,5.0,100,0.00,,,0.00,Wunderground v.1.15,2013-02-28 08:50:00,
2013-02-28 04:00:00,39.1,39.1,29.54,West,260,3.0,3.0,100,0.00,,,0.00,Wunderground v.1.15,2013-02-28 09:00:00,
2013-02-28 04:10:00,39.1,39.1,29.54,WNW,282,3.0,5.0,100,0.00,,,0.00,Wunderground v.1.15,2013-02-28 09:10:00,
2013-02-28 04:15:00,39.1,39.1,29.55,WNW,298,5.0,5.0,100,0.00,,,0.00,Wunderground v.1.15,2013-02-28 09:15:00,
2013-02-28 04:20:00,39.1,39.1,29.55,WNW,298,4.0,4.0,100,0.00,,,0.00,Wunderground v.1.15,2013-02-28 09:20:00,
2013-02-28 04:25:00,39.2,39.2,29.55,WNW,295,3.0,7.0,100,0.00,,,0.00,Wunderground v.1.15,2013-02-28 09:25:00,
2013-02-28 04:35:00,39.3,39.3,29.55,WNW,295,4.0,7.0,100,0.00,,,0.00,Wunderground v.1.15,2013-02-28 09:35:00,
2013-02-28 04:40:00,39.3,39.3,29.55,West,271,5.0,5.0,100,0.00,,,0.00,Wunderground v.1.15,2013-02-28 09:40:00,
2013-02-28 04:50:00,39.2,39.2,29.56,West,271,5.0,5.0,100,0.00,,,0.00,Wunderground v.1.15,2013-02-28 09:50:00,
2013-02-28 05:00:00,38.8,38.8,29.56,West,261,5.0,5.0,100,0.00,,,0.00,Wunderground v.1.15,2013-02-28 10:00:00,
2013-02-28 05:05:00,38.8,38.8,29.56,West,261,4.0,6.0,100,0.00,,,0.00,Wunderground v.1.15,2013-02-28 10:05:00,
2013-02-28 05:15:00,38.6,38.6,29.56,West,266,6.0,6.0,100,0.00,,,0.00,Wunderground v.1.15,2013-02-28 10:15:00,
2013-02-28 05:20:00,38.6,38.6,29.56,West,260,5.0,7.0,100,0.00,,,0.00,Wunderground v.1.15,2013-02-28 10:20:00,
2013-02-28 05:30:00,38.8,38.8,29.57,West,260,6.0,6.0,100,0.00,,,0.00,Wunderground v.1.15,2013-02-28 10:30:00,
2013-02-28 05:35:00,38.6,38.6,29.57,West,266,5.0,7.0,100,0.00,,,0.00,Wunderground v.1.15,2013-02-28 10:35:00,
2013-02-28 05:45:00,38.6,38.6,29.57,West,264,5.0,5.0,100,0.00,,,0.00,Wunderground v.1.15,2013-02-28 10:45:00,
2013-02-28 05:55:00,38.5,38.5,29.57,West,261,5.0,5.0,100,0.00,,,0.00,Wunderground v.1.15,2013-02-28 10:55:00,
2013-02-28 06:05:00,38.3,38.3,29.57,West,266,5.0,7.0,100,0.00,,,0.00,Wunderground v.1.15,2013-02-28 11:05:00,
2013-02-28 06:15:00,38.2,38.2,29.57,West,263,4.0,6.0,100,0.00,,,0.00,Wunderground v.1.15,2013-02-28 11:15:00,
2013-02-28 06:20:00,38.0,38.0,29.57,West,266,5.0,5.0,100,0.00,,,0.00,Wunderground v.1.15,2013-02-28 11:20:00,
2013-02-28 06:30:00,37.9,37.9,29.57,West,266,5.0,5.0,100,0.00,,,0.00,Wunderground v.1.15,2013-02-28 11:30:00,
2013-02-28 06:35:00,37.9,37.9,29.57,West,268,4.0,5.0,100,0.00,,,0.00,Wunderground v.1.15,2013-02-28 11:35:00,
2013-02-28 06:45:00,38.0,38.0,29.57,West,268,3.0,4.0,100,0.00,,,0.00,Wunderground v.1.15,2013-02-28 11:45:00,
2013-02-28 06:50:00,38.0,38.0,29.57,West,268,3.0,3.0,100,0.00,,,0.00,Wunderground v.1.15,2013-02-28 11:50:00,
2013-02-28 07:00:00,38.2,38.2,29.57,West,271,3.0,3.0,100,0.00,,,0.00,Wunderground v.1.15,2013-02-28 12:00:00,
2013-02-28 07:05:00,38.2,38.2,29.57,West,271,2.0,3.0,100,0.00,,,0.00,Wunderground v.1.15,2013-02-28 12:05:00,
2013-02-28 07:10:00,38.2,38.2,29.57,West,271,2.0,2.0,100,0.00,,,0.00,Wunderground v.1.15,2013-02-28 12:10:00,
2013-02-28 07:20:00,38.2,38.2,29.57,West,271,3.0,3.0,100,0.00,,,0.00,Wunderground v.1.15,2013-02-28 12:20:00,
2013-02-28 07:30:00,38.3,38.3,29.57,West,271,3.0,3.0,100,0.00,,,0.00,Wunderground v.1.15,2013-02-28 12:30:00,
2013-02-28 07:40:00,38.5,38.5,29.57,West,271,2.0,2.0,100,0.00,,,0.00,Wunderground v.1.15,2013-02-28 12:40:00,
2013-02-28 07:45:00,38.5,38.5,29.58,West,271,3.0,5.0,100,0.00,,,0.00,Wunderground v.1.15,2013-02-28 12:45:00,
2013-02-28 07:50:00,38.8,38.8,29.58,West,271,3.0,4.0,100,0.00,,,0.00,Wunderground v.1.15,2013-02-28 12:50:00,
2013-02-28 08:00:00,38.9,38.9,29.58,West,270,4.0,6.0,100,0.00,,,0.00,Wunderground v.1.15,2013-02-28 13:00:00,
2013-02-28 08:05:00,38.9,38.9,29.58,West,270,4.0,6.0,100,0.00,,,0.00,Wunderground v.1.15,2013-02-28 13:05:00,
2013-02-28 08:10:00,39.1,39.1,29.58,West,270,3.0,5.0,100,0.00,,,0.00,Wunderground v.1.15,2013-02-28 13:10:00,
2013-02-28 08:20:00,39.3,39.3,29.59,West,273,4.0,7.0,100,0.00,,,0.00,Wunderground v.1.15,2013-02-28 13:20:00,
2013-02-28 08:25:00,39.6,39.6,29.59,West,273,4.0,7.0,100,0.00,,,0.00,Wunderground v.1.15,2013-02-28 13:25:00,
2013-02-28 08:35:00,40.2,40.2,29.59,West,273,3.0,7.0,100,0.00,,,0.00,Wunderground v.1.15,2013-02-28 13:35:00,
2013-02-28 08:45:00,40.1,40.1,29.58,West,271,4.0,5.0,100,0.00,,,0.00,Wunderground v.1.15,2013-02-28 13:45:00,
2013-02-28 08:50:00,40.1,40.1,29.58,West,271,4.0,6.0,100,0.00,,,0.00,Wunderground v.1.15,2013-02-28 13:50:00,
2013-02-28 09:00:00,39.8,39.8,29.59,West,263,5.0,5.0,100,0.00,,,0.00,Wunderground v.1.15,2013-02-28 14:00:00,
2013-02-28 09:05:00,39.8,39.8,29.59,WNW,285,6.0,6.0,100,0.00,,,0.00,Wunderground v.1.15,2013-02-28 14:05:00,
2013-02-28 09:15:00,40.1,40.1,29.59,West,271,6.0,8.0,100,0.00,,,0.00,Wunderground v.1.15,2013-02-28 14:15:00,
2013-02-28 09:20:00,40.1,40.1,29.59,West,275,6.0,11.0,100,0.00,,,0.00,Wunderground v.1.15,2013-02-28 14:20:00,
2013-02-28 09:30:00,40.3,40.3,29.58,West,277,6.0,6.0,100,0.00,,,0.00,Wunderground v.1.15,2013-02-28 14:30:00,
2013-02-28 09:40:00,40.3,40.3,29.58,West,277,5.0,5.0,100,0.00,,,0.00,Wunderground v.1.15,2013-02-28 14:40:00,
2013-02-28 09:45:00,40.3,40.3,29.58,West,277,4.0,6.0,100,0.00,,,0.00,Wunderground v.1.15,2013-02-28 14:45:00,
2013-02-28 09:55:00,40.3,40.3,29.58,West,275,4.0,5.0,100,0.00,,,0.00,Wunderground v.1.15,2013-02-28 14:55:00,
2013-02-28 10:05:00,41.1,41.1,29.56,West,275,1.0,2.0,100,0.00,,,0.00,Wunderground v.1.15,2013-02-28 15:05:00,
2013-02-28 10:15:00,41.5,41.5,29.56,West,275,1.0,1.0,100,0.00,,,0.00,Wunderground v.1.15,2013-02-28 15:15:00,
2013-02-28 10:20:00,41.9,41.9,29.56,West,275,1.0,6.0,100,0.00,,,0.00,Wunderground v.1.15,2013-02-28 15:20:00,
2013-02-28 10:25:00,41.6,41.6,29.56,West,275,2.0,6.0,100,0.00,,,0.00,Wunderground v.1.15,2013-02-28 15:25:00,
2013-02-28 10:35:00,41.2,41.2,29.57,West,274,4.0,4.0,100,0.00,,,0.00,Wunderground v.1.15,2013-02-28 15:35:00,
2013-02-28 10:45:00,41.2,41.2,29.56,WNW,282,4.0,4.0,100,0.00,,,0.00,Wunderground v.1.15,2013-02-28 15:45:00,
2013-02-28 10:50:00,41.3,41.3,29.56,WNW,282,4.0,4.0,100,0.00,,,0.00,Wunderground v.1.15,2013-02-28 15:50:00,
2013-02-28 11:00:00,41.3,41.3,29.56,WNW,282,2.0,2.0,100,0.00,,,0.00,Wunderground v.1.15,2013-02-28 16:00:00,
2013-02-28 11:05:00,41.3,41.3,29.56,WNW,282,2.0,2.0,100,0.00,,,0.00,Wunderground v.1.15,2013-02-28 16:05:00,
2013-02-28 11:15:00,41.2,41.2,29.56,NW,309,2.0,3.0,100,0.00,,,0.00,Wunderground v.1.15,2013-02-28 16:15:00,
2013-02-28 11:20:00,41.2,41.2,29.56,NW,309,2.0,3.0,100,0.00,,,0.00,Wunderground v.1.15,2013-02-28 16:20:00,
2013-02-28 11:30:00,41.2,41.2,29.56,NW,309,2.0,2.0,100,0.00,,,0.00,Wunderground v.1.15,2013-02-28 16:30:00,
2013-02-28 11:40:00,41.8,41.8,29.56,NW,309,3.0,5.0,100,0.00,,,0.00,Wunderground v.1.15,2013-02-28 16:40:00,
2013-02-28 11:50:00,42.1,42.1,29.56,NW,309,2.0,5.0,100,0.00,,,0.00,Wunderground v.1.15,2013-02-28 16:50:00,
2013-02-28 12:00:00,42.8,42.8,29.54,NW,309,1.0,1.0,100,0.00,,,0.00,Wunderground v.1.15,2013-02-28 17:00:00,
2013-02-28 12:05:00,42.8,42.8,29.54,NW,309,2.0,2.0,100,0.00,,,0.00,Wunderground v.1.15,2013-02-28 17:05:00,
2013-02-28 12:15:00,43.8,43.8,29.54,NW,309,1.0,2.0,100,0.00,,,0.00,Wunderground v.1.15,2013-02-28 17:15:00,
2013-02-28 12:20:00,44.1,44.1,29.54,NW,309,1.0,2.0,100,0.00,,,0.00,Wunderground v.1.15,2013-02-28 17:20:00,
2013-02-28 12:30:00,44.1,44.1,29.53,NW,309,2.0,2.0,100,0.00,,,0.00,Wunderground v.1.15,2013-02-28 17:30:00,
2013-02-28 12:35:00,43.8,43.8,29.53,NW,309,1.0,2.0,100,0.00,,,0.00,Wunderground v.1.15,2013-02-28 17:35:00,
2013-02-28 12:45:00,44.1,44.1,29.53,NW,309,2.0,5.0,100,0.00,,,0.00,Wunderground v.1.15,2013-02-28 17:45:00,
2013-02-28 12:55:00,43.9,43.9,29.53,NW,309,2.0,2.0,100,0.00,,,0.00,Wunderground v.1.15,2013-02-28 17:55:00,
2013-02-28 13:05:00,44.1,44.1,29.51,NW,309,1.0,3.0,100,0.00,,,0.00,Wunderground v.1.15,2013-02-28 18:05:00,
2013-02-28 13:15:00,44.3,44.3,29.51,NW,309,2.0,5.0,100,0.00,,,0.00,Wunderground v.1.15,2013-02-28 18:15:00,
2013-02-28 13:20:00,44.2,44.2,29.51,NW,309,1.0,2.0,100,0.00,,,0.00,Wunderground v.1.15,2013-02-28 18:20:00,
2013-02-28 13:30:00,43.8,43.8,29.51,NW,309,2.0,2.0,100,0.00,,,0.00,Wunderground v.1.15,2013-02-28 18:30:00,
2013-02-28 13:35:00,43.6,43.6,29.51,NW,309,2.0,5.0,100,0.00,,,0.00,Wunderground v.1.15,2013-02-28 18:35:00,
2013-02-28 13:45:00,43.5,43.5,29.50,NW,309,2.0,2.0,100,0.00,,,0.00,Wunderground v.1.15,2013-02-28 18:45:00,
2013-02-28 13:50:00,43.5,43.5,29.50,NW,309,1.0,4.0,100,0.00,,,0.00,Wunderground v.1.15,2013-02-28 18:50:00,
2013-02-28 14:00:00,43.5,43.5,29.50,NW,309,2.0,2.0,100,0.00,,,0.00,Wunderground v.1.15,2013-02-28 19:00:00,
2013-02-28 14:10:00,42.8,42.8,29.50,NW,309,3.0,3.0,100,0.00,,,0.00,Wunderground v.1.15,2013-02-28 19:10:00,
2013-02-28 14:15:00,42.5,42.5,29.50,NW,309,3.0,3.0,100,0.00,,,0.00,Wunderground v.1.15,2013-02-28 19:15:00,
2013-02-28 14:20:00,42.2,42.2,29.50,NW,309,3.0,3.0,100,0.00,,,0.00,Wunderground v.1.15,2013-02-28 19:20:00,
2013-02-28 14:30:00,41.6,41.6,29.49,NW,309,4.0,4.0,100,0.00,,,0.00,Wunderground v.1.15,2013-02-28 19:30:00,
2013-02-28 14:35:00,41.5,41.5,29.49,NW,309,2.0,4.0,100,0.00,,,0.00,Wunderground v.1.15,2013-02-28 19:35:00,
2013-02-28 14:45:00,41.1,41.1,29.49,NW,309,2.0,5.0,100,0.00,,,0.00,Wunderground v.1.15,2013-02-28 19:45:00,
2013-02-28 14:50:00,40.9,40.9,29.49,NW,309,1.0,2.0,100,0.00,,,0.00,Wunderground v.1.15,2013-02-28 19:50:00,
2013-02-28 14:55:00,40.6,40.6,29.49,NW,309,2.0,3.0,100,0.00,,,0.00,Wunderground v.1.15,2013-02-28 19:55:00,
2013-02-28 15:05:00,39.8,39.8,29.48,NW,309,2.0,6.0,100,0.00,,,0.00,Wunderground v.1.15,2013-02-28 20:05:00,
2013-02-28 15:15:00,39.5,39.5,29.48,NW,309,4.0,4.0,100,0.00,,,0.00,Wunderground v.1.15,2013-02-28 20:15:00,
2013-02-28 15:20:00,39.3,39.3,29.48,NW,309,4.0,6.0,100,0.00,,,0.00,Wunderground v.1.15,2013-02-28 20:20:00,
2013-02-28 15:30:00,39.2,39.2,29.48,NW,315,5.0,6.0,100,0.00,,,0.00,Wunderground v.1.15,2013-02-28 20:30:00,
2013-02-28 15:40:00,39.5,39.5,29.48,NW,321,4.0,5.0,100,0.00,,,0.00,Wunderground v.1.15,2013-02-28 20:40:00,
2013-02-28 15:50:00,39.9,39.9,29.48,NW,321,2.0,2.0,100,0.00,,,0.00,Wunderground v.1.15,2013-02-28 20:50:00,
2013-02-28 16:00:00,39.6,39.6,29.48,NW,321,2.0,4.0,100,0.00,,,0.00,Wunderground v.1.15,2013-02-28 21:00:00,
2013-02-28 16:05:00,39.8,39.8,29.48,NW,321,2.0,4.0,100,0.00,,,0.00,Wunderground v.1.15,2013-02-28 21:05:00,
2013-02-28 16:15:00,40.1,40.1,29.48,NW,321,0.0,1.0,100,0.00,,,0.00,Wunderground v.1.15,2013-02-28 21:15:00,
2013-02-28 16:20:00,39.9,39.9,29.48,NW,321,1.0,1.0,100,0.00,,,0.00,Wunderground v.1.15,2013-02-28 21:20:00,
2013-02-28 16:30:00,40.1,40.1,29.48,NW,321,0.0,0.0,100,0.00,,,0.00,Wunderground v.1.15,2013-02-28 21:30:00,
2013-02-28 16:35:00,40.1,40.1,29.48,NW,321,0.0,0.0,100,0.00,,,0.00,Wunderground v.1.15,2013-02-28 21:35:00,
2013-02-28 16:45:00,39.8,39.8,29.48,NW,321,1.0,2.0,100,0.00,,,0.00,Wunderground v.1.15,2013-02-28 21:45:00,
2013-02-28 16:50:00,39.8,39.8,29.48,NW,321,1.0,1.0,100,0.00,,,0.00,Wunderground v.1.15,2013-02-28 21:50:00,
2013-02-28 16:55:00,39.8,39.8,29.48,NW,321,1.0,1.0,100,0.00,,,0.00,Wunderground v.1.15,2013-02-28 21:55:00,
2013-02-28 17:05:00,39.8,39.8,29.48,NW,321,0.0,0.0,100,0.00,,,0.00,Wunderground v.1.15,2013-02-28 22:05:00,
2013-02-28 17:10:00,39.6,39.6,29.48,NW,321,0.0,2.0,100,0.00,,,0.00,Wunderground v.1.15,2013-02-28 22:10:00,
2013-02-28 17:20:00,39.3,39.3,29.48,NW,321,1.0,1.0,100,0.00,,,0.00,Wunderground v.1.15,2013-02-28 22:20:00,
2013-02-28 17:30:00,39.2,39.2,29.48,NW,321,0.0,0.0,100,0.00,,,0.00,Wunderground v.1.15,2013-02-28 22:30:00,
2013-02-28 17:40:00,38.8,38.8,29.48,NW,321,0.0,0.0,100,0.00,,,0.00,Wunderground v.1.15,2013-02-28 22:40:00,
2013-02-28 17:50:00,38.3,38.3,29.48,NW,321,0.0,0.0,100,0.00,,,0.00,Wunderground v.1.15,2013-02-28 22:50:00,
2013-02-28 18:00:00,38.0,38.0,29.48,NW,321,0.0,0.0,100,0.00,,,0.00,Wunderground v.1.15,2013-02-28 23:00:00,
2013-02-28 18:05:00,37.9,37.9,29.48,NW,321,0.0,1.0,100,0.00,,,0.00,Wunderground v.1.15,2013-02-28 23:05:00,
2013-02-28 18:15:00,37.8,37.8,29.48,NW,321,1.0,1.0,100,0.00,,,0.00,Wunderground v.1.15,2013-02-28 23:15:00,
2013-02-28 18:25:00,37.6,37.6,29.48,NW,321,2.0,3.0,100,0.00,,,0.00,Wunderground v.1.15,2013-02-28 23:25:00,
2013-02-28 18:35:00,37.6,37.6,29.49,NW,321,1.0,2.0,100,0.00,,,0.00,Wunderground v.1.15,2013-02-28 23:35:00,
2013-02-28 18:45:00,37.5,37.5,29.49,NW,321,0.0,0.0,100,0.00,,,0.00,Wunderground v.1.15,2013-02-28 23:45:00,
2013-02-28 18:50:00,37.5,37.5,29.49,NW,321,1.0,1.0,100,0.00,,,0.00,Wunderground v.1.15,2013-02-28 23:50:00,
2013-02-28 19:00:00,37.6,37.6,29.49,NW,321,0.0,0.0,100,0.00,,,0.00,Wunderground v.1.15,2013-03-01 00:00:00,
2013-02-28 19:10:00,37.6,37.6,29.49,NW,321,0.0,0.0,100,0.00,,,0.00,Wunderground v.1.15,2013-03-01 00:10:00,
2013-02-28 19:20:00,37.8,37.8,29.48,NW,321,0.0,0.0,100,0.00,,,0.00,Wunderground v.1.15,2013-03-01 00:20:00,
2013-02-28 19:30:00,37.9,37.9,29.48,NW,321,0.0,0.0,100,0.00,,,0.00,Wunderground v.1.15,2013-03-01 00:30:00,
2013-02-28 19:40:00,37.9,37.9,29.48,NW,321,0.0,0.0,100,0.00,,,0.00,Wunderground v.1.15,2013-03-01 00:40:00,
2013-02-28 19:45:00,37.9,37.9,29.48,NW,321,0.0,0.0,100,0.00,,,0.00,Wunderground v.1.15,2013-03-01 00:45:00,
2013-02-28 19:50:00,37.9,37.9,29.48,NW,321,0.0,0.0,100,0.00,,,0.00,Wunderground v.1.15,2013-03-01 00:50:00,
2013-02-28 20:00:00,37.9,37.9,29.48,NW,321,0.0,0.0,100,0.00,,,0.00,Wunderground v.1.15,2013-03-01 01:00:00,
2013-02-28 20:05:00,38.0,38.0,29.48,NW,321,0.0,0.0,100,0.00,,,0.00,Wunderground v.1.15,2013-03-01 01:05:00,
2013-02-28 20:10:00,38.0,38.0,29.48,NW,321,0.0,0.0,100,0.00,,,0.00,Wunderground v.1.15,2013-03-01 01:10:00,
2013-02-28 20:15:00,38.0,38.0,29.48,NW,321,0.0,0.0,100,0.00,,,0.00,Wunderground v.1.15,2013-03-01 01:15:00,
2013-02-28 20:20:00,38.0,38.0,29.48,NW,321,0.0,0.0,100,0.00,,,0.00,Wunderground v.1.15,2013-03-01 01:20:00,
2013-02-28 20:30:00,38.0,38.0,29.48,NW,321,0.0,0.0,100,0.00,,,0.00,Wunderground v.1.15,2013-03-01 01:30:00,
2013-02-28 20:40:00,38.0,38.0,29.48,NW,321,0.0,0.0,100,0.00,,,0.00,Wunderground v.1.15,2013-03-01 01:40:00,
2013-02-28 20:50:00,38.0,38.0,29.47,NW,321,0.0,0.0,100,0.00,,,0.00,Wunderground v.1.15,2013-03-01 01:50:00,
2013-02-28 21:00:00,38.0,38.0,29.47,NW,321,0.0,0.0,100,0.00,,,0.00,Wunderground v.1.15,2013-03-01 02:00:00,
2013-02-28 21:05:00,37.9,37.9,29.47,NW,321,0.0,0.0,100,0.00,,,0.00,Wunderground v.1.15,2013-03-01 02:05:00,
2013-02-28 21:15:00,37.9,37.9,29.48,NW,321,0.0,0.0,100,0.00,,,0.00,Wunderground v.1.15,2013-03-01 02:15:00,
2013-02-28 21:25:00,37.9,37.9,29.48,NW,321,0.0,0.0,100,0.00,,,0.00,Wunderground v.1.15,2013-03-01 02:25:00,
2013-02-28 21:35:00,37.8,37.8,29.47,NW,321,0.0,0.0,100,0.00,,,0.00,Wunderground v.1.15,2013-03-01 02:35:00,
2013-02-28 21:45:00,37.6,37.6,29.46,NW,321,0.0,0.0,100,0.00,,,0.00,Wunderground v.1.15,2013-03-01 02:45:00,
2013-02-28 21:50:00,37.6,37.6,29.46,NW,321,0.0,0.0,100,0.00,,,0.00,Wunderground v.1.15,2013-03-01 02:50:00,
2013-02-28 22:00:00,37.5,37.5,29.46,NW,321,0.0,0.0,100,0.00,,,0.00,Wunderground v.1.15,2013-03-01 03:00:00,
2013-02-28 22:05:00,37.5,37.5,29.46,NW,321,0.0,0.0,100,0.00,,,0.00,Wunderground v.1.15,2013-03-01 03:05:00,
2013-02-28 22:15:00,37.5,37.5,29.46,NW,321,0.0,1.0,100,0.00,,,0.00,Wunderground v.1.15,2013-03-01 03:15:00,
2013-02-28 22:20:00,37.5,37.5,29.46,NW,321,0.0,0.0,100,0.00,,,0.00,Wunderground v.1.15,2013-03-01 03:20:00,
2013-02-28 22:30:00,37.3,37.3,29.45,NW,321,0.0,0.0,100,0.00,,,0.00,Wunderground v.1.15,2013-03-01 03:30:00,
2013-02-28 22:35:00,37.3,37.3,29.45,NW,321,0.0,0.0,100,0.00,,,0.00,Wunderground v.1.15,2013-03-01 03:35:00,
2013-02-28 22:45:00,37.2,37.2,29.45,NW,321,0.0,0.0,100,0.00,,,0.00,Wunderground v.1.15,2013-03-01 03:45:00,
2013-02-28 22:55:00,37.0,37.0,29.45,NW,321,0.0,0.0,100,0.00,,,0.00,Wunderground v.1.15,2013-03-01 03:55:00,
2013-02-28 23:05:00,36.9,36.9,29.45,NW,321,0.0,0.0,100,0.00,,,0.00,Wunderground v.1.15,2013-03-01 04:05:00,
2013-02-28 23:15:00,36.8,36.8,29.44,NW,321,0.0,2.0,100,0.00,,,0.00,Wunderground v.1.15,2013-03-01 04:15:00,
2013-02-28 23:20:00,36.6,36.6,29.44,NW,321,0.0,0.0,100,0.00,,,0.00,Wunderground v.1.15,2013-03-01 04:20:00,
2013-02-28 23:25:00,36.6,36.6,29.44,NW,321,1.0,1.0,100,0.00,,,0.00,Wunderground v.1.15,2013-03-01 04:25:00,
2013-02-28 23:35:00,36.5,36.5,29.44,NW,321,0.0,0.0,100,0.00,,,0.00,Wunderground v.1.15,2013-03-01 04:35:00,
2013-02-28 23:45:00,36.3,36.3,29.44,NW,321,1.0,2.0,100,0.00,,,0.00,Wunderground v.1.15,2013-03-01 04:45:00,
2013-02-28 23:50:00,36.3,36.3,29.44,NW,321,0.0,3.0,100,0.00,,,0.00,Wunderground v.1.15,2013-03-01 04:50:00,